createdAt,value
2023-05-23T00:00:28.634Z,1017.73
2023-05-23T00:01:13.595Z,1034.19
2023-05-23T00:01:59.376Z,1022.31
2023-05-23T00:02:43.924Z,1000.90
2023-05-23T00:03:29.086Z,1025.96
2023-05-23T00:04:14.142Z,1025.96
2023-05-23T00:04:59.031Z,1027.79
2023-05-23T00:05:43.993Z,1045.56
2023-05-23T00:06:29.337Z,1030.79
2023-05-23T00:07:14.412Z,1056.25
2023-05-23T00:07:58.890Z,1047.76
2023-05-23T00:08:44.354Z,1070.40
2023-05-23T00:09:29.209Z,1054.34
2023-05-23T00:10:14.160Z,1068.51
2023-05-23T00:10:59.234Z,1071.03
2023-05-23T00:11:44.411Z,1048.71
2023-05-23T00:12:29.447Z,1045.90
2023-05-23T00:13:14.386Z,1045.90
2023-05-23T00:13:59.371Z,1037.22
2023-05-23T00:14:44.213Z,1036.29
2023-05-23T00:15:29.583Z,1023.22
2023-05-23T00:16:14.717Z,1024.14
2023-05-23T00:17:00.026Z,1021.39
2023-05-23T00:17:45.132Z,1021.39
2023-05-23T00:18:29.638Z,1015.91
2023-05-23T00:19:15.297Z,1033.28
2023-05-23T00:20:00.300Z,1014.99
2023-05-23T00:20:45.235Z,1030.54
2023-05-23T00:21:30.016Z,1003.58
2023-05-23T00:22:15.747Z,1018.65
2023-05-23T00:23:00.041Z,1023.22
2023-05-23T00:23:45.397Z,1024.14
2023-05-23T00:24:30.052Z,1036.02
2023-05-23T00:25:15.502Z,1030.54
2023-05-23T00:26:00.042Z,1024.14
2023-05-23T00:26:45.642Z,1040.00
2023-05-23T00:27:30.391Z,1063.72
2023-05-23T00:28:15.336Z,1066.29
2023-05-23T00:29:00.983Z,1064.40
2023-05-23T00:29:45.323Z,1061.91
2023-05-23T00:30:30.381Z,1053.42
2023-05-23T00:31:15.486Z,1054.37
2023-05-23T00:32:00.404Z,1068.51
2023-05-23T00:32:45.609Z,1062.50
2023-05-23T00:33:30.721Z,1053.42
2023-05-23T00:34:16.382Z,1060.91
2023-05-23T00:35:01.036Z,1040.83
2023-05-23T00:35:45.945Z,1040.83
2023-05-23T00:36:30.941Z,1042.78
2023-05-23T00:37:16.135Z,1034.44
2023-05-23T00:38:01.470Z,1045.56
2023-05-23T00:38:46.204Z,1019.56
2023-05-23T00:39:31.328Z,994.65
2023-05-23T00:40:16.137Z,1035.11
2023-05-23T00:41:01.607Z,1022.31
2023-05-23T00:41:46.223Z,1026.88
2023-05-23T00:42:31.533Z,1024.14
2023-05-23T00:43:16.293Z,1032.37
2023-05-23T00:44:01.742Z,1037.85
2023-05-23T00:44:46.485Z,1035.11
2023-05-23T00:45:31.928Z,1019.56
2023-05-23T00:46:16.634Z,1021.39
2023-05-23T00:47:02.240Z,1012.25
2023-05-23T00:47:46.687Z,1019.56
2023-05-23T00:48:31.749Z,1037.85
2023-05-23T00:49:16.585Z,1025.05
2023-05-23T00:50:02.503Z,1026.88
2023-05-23T00:50:47.213Z,1040.00
2023-05-23T00:51:32.179Z,1044.96
2023-05-23T00:52:17.142Z,1044.96
2023-05-23T00:53:02.076Z,1067.24
2023-05-23T00:53:47.150Z,1057.19
2023-05-23T00:54:32.294Z,1062.85
2023-05-23T00:55:17.509Z,1059.08
2023-05-23T00:56:02.219Z,1059.08
2023-05-23T00:56:47.286Z,1066.29
2023-05-23T00:57:32.401Z,1040.00
2023-05-23T00:58:17.393Z,1054.34
2023-05-23T00:59:02.324Z,1041.76
2023-05-23T00:59:47.477Z,1035.37
2023-05-23T01:00:32.335Z,1008.48
2023-05-23T01:01:18.050Z,1035.37
2023-05-23T01:02:02.951Z,1020.48
2023-05-23T01:02:47.584Z,1026.88
2023-05-23T01:03:32.857Z,1023.22
2023-05-23T01:04:17.738Z,1010.73
2023-05-23T01:05:03.765Z,1024.14
2023-05-23T01:05:48.237Z,1023.22
2023-05-23T01:06:33.240Z,1023.22
2023-05-23T01:07:18.043Z,1021.39
2023-05-23T01:08:03.147Z,1016.82
2023-05-23T01:08:48.190Z,1024.14
2023-05-23T01:09:33.047Z,1018.65
2023-05-23T01:10:18.321Z,1026.88
2023-05-23T01:11:03.533Z,1022.31
2023-05-23T01:11:48.749Z,1022.31
2023-05-23T01:12:34.394Z,1053.42
2023-05-23T01:13:18.985Z,1055.31
2023-05-23T01:14:03.861Z,1056.25
2023-05-23T01:14:48.621Z,1052.47
2023-05-23T01:15:35.431Z,1025.96
2023-05-23T01:16:18.631Z,1031.45
2023-05-23T01:17:03.928Z,1062.78
2023-05-23T01:17:51.007Z,1062.25
2023-05-23T01:18:34.054Z,1009.10
2023-05-23T01:19:19.513Z,1060.97
2023-05-23T01:20:03.905Z,1069.14
2023-05-23T01:20:49.023Z,1070.09
2023-05-23T01:21:33.711Z,1061.56
2023-05-23T01:22:19.079Z,1063.45
2023-05-23T01:23:04.130Z,1062.50
2023-05-23T01:23:49.094Z,1067.32
2023-05-23T01:24:34.035Z,1067.32
2023-05-23T01:25:19.287Z,1086.02
2023-05-23T01:26:04.127Z,1086.02
2023-05-23T01:26:49.168Z,1075.46
2023-05-23T01:27:35.075Z,1071.62
2023-05-23T01:28:19.433Z,1086.21
2023-05-23T01:29:04.385Z,1083.32
2023-05-23T01:29:49.306Z,1065.86
2023-05-23T01:30:34.497Z,1088.14
2023-05-23T01:31:19.163Z,1082.36
2023-05-23T01:32:04.770Z,1091.03
2023-05-23T01:32:49.720Z,1084.29
2023-05-23T01:33:34.519Z,1079.47
2023-05-23T01:34:19.747Z,1082.36
2023-05-23T01:35:05.221Z,1074.97
2023-05-23T01:35:49.472Z,1079.47
2023-05-23T01:36:34.724Z,1081.39
2023-05-23T01:37:20.575Z,1072.55
2023-05-23T01:38:04.846Z,1090.93
2023-05-23T01:38:50.276Z,1089.96
2023-05-23T01:39:34.905Z,1083.19
2023-05-23T01:40:20.715Z,1087.06
2023-05-23T01:41:05.179Z,1087.06
2023-05-23T01:41:50.187Z,1089.96
2023-05-23T01:42:35.652Z,1089.54
2023-05-23T01:43:20.258Z,1084.69
2023-05-23T01:44:05.716Z,1067.78
2023-05-23T01:44:50.880Z,1090.52
2023-05-23T01:45:35.774Z,1088.57
2023-05-23T01:46:20.567Z,1087.60
2023-05-23T01:47:06.550Z,1073.05
2023-05-23T01:47:50.913Z,1086.63
2023-05-23T01:48:35.652Z,1088.57
2023-05-23T01:49:20.606Z,1073.05
2023-05-23T01:50:05.896Z,1082.75
2023-05-23T01:50:50.735Z,1084.69
2023-05-23T01:51:35.963Z,1081.39
2023-05-23T01:52:20.836Z,1087.60
2023-05-23T01:53:06.330Z,1087.60
2023-05-23T01:53:51.134Z,1077.90
2023-05-23T01:54:35.710Z,1081.78
2023-05-23T01:55:22.395Z,1094.40
2023-05-23T01:56:06.054Z,1090.81
2023-05-23T01:56:51.463Z,1090.81
2023-05-23T01:57:36.318Z,1088.85
2023-05-23T01:58:21.393Z,1083.00
2023-05-23T01:59:06.229Z,1099.59
2023-05-23T01:59:53.334Z,1107.37
2023-05-23T02:00:36.548Z,1040.07
2023-05-23T02:01:21.508Z,1090.81
2023-05-23T02:02:07.207Z,1085.93
2023-05-23T02:02:51.704Z,1091.78
2023-05-23T02:03:36.661Z,1087.88
2023-05-23T02:04:22.036Z,1093.73
2023-05-23T02:05:07.086Z,1094.71
2023-05-23T02:05:51.962Z,1090.57
2023-05-23T02:06:36.911Z,1091.55
2023-05-23T02:07:21.867Z,1102.31
2023-05-23T02:08:06.900Z,1100.35
2023-05-23T02:08:52.028Z,1089.59
2023-05-23T02:09:37.214Z,1089.59
2023-05-23T02:10:22.030Z,1087.64
2023-05-23T02:11:07.482Z,1092.53
2023-05-23T02:11:52.389Z,1091.55
2023-05-23T02:12:37.628Z,1085.68
2023-05-23T02:13:22.331Z,1088.62
2023-05-23T02:14:06.961Z,1089.59
2023-05-23T02:14:52.649Z,1093.43
2023-05-23T02:15:37.580Z,1087.64
2023-05-23T02:16:22.788Z,1087.64
2023-05-23T02:17:07.922Z,1097.42
2023-05-23T02:17:53.001Z,1087.64
2023-05-23T02:18:37.920Z,1093.51
2023-05-23T02:19:22.938Z,1100.35
2023-05-23T02:20:08.055Z,1100.35
2023-05-23T02:20:53.069Z,1103.83
2023-05-23T02:21:38.229Z,1103.83
2023-05-23T02:22:22.985Z,1095.46
2023-05-23T02:23:08.568Z,1093.51
2023-05-23T02:23:53.430Z,1087.16
2023-05-23T02:24:38.592Z,1100.89
2023-05-23T02:25:23.641Z,1081.78
2023-05-23T02:26:08.979Z,1097.95
2023-05-23T02:26:53.735Z,1079.84
2023-05-23T02:27:38.849Z,1091.09
2023-05-23T02:28:23.551Z,1100.89
2023-05-23T02:29:09.061Z,1084.22
2023-05-23T02:29:54.014Z,1095.01
2023-05-23T02:30:38.715Z,1095.01
2023-05-23T02:31:23.867Z,1086.18
2023-05-23T02:32:09.064Z,1072.08
2023-05-23T02:33:39.029Z,1090.11
2023-05-23T02:34:24.495Z,1090.11
2023-05-23T02:35:09.044Z,1095.99
2023-05-23T02:35:54.318Z,1093.05
2023-05-23T02:36:39.265Z,1101.87
2023-05-23T02:37:24.409Z,1088.14
2023-05-23T02:38:09.358Z,1086.18
2023-05-23T02:38:54.703Z,1085.20
2023-05-23T02:39:39.424Z,1087.16
2023-05-23T02:40:25.196Z,1092.76
2023-05-23T02:41:10.512Z,1087.16
2023-05-23T02:41:54.958Z,1088.44
2023-05-23T02:42:39.914Z,1100.23
2023-05-23T02:43:24.875Z,1096.30
2023-05-23T02:44:09.821Z,1096.30
2023-05-23T02:44:54.875Z,1097.28
2023-05-23T02:45:40.680Z,1091.78
2023-05-23T02:46:25.023Z,1102.19
2023-05-23T02:47:10.021Z,1092.37
2023-05-23T02:47:55.223Z,1100.23
2023-05-23T02:48:40.057Z,1098.26
2023-05-23T02:49:24.900Z,1094.71
2023-05-23T02:50:10.279Z,1094.33
2023-05-23T02:50:55.442Z,1089.42
2023-05-23T02:51:40.283Z,1096.30
2023-05-23T02:52:25.550Z,1096.30
2023-05-23T02:53:10.307Z,1096.30
2023-05-23T02:53:55.298Z,1086.47
2023-05-23T02:54:40.413Z,1097.28
2023-05-23T02:55:25.567Z,1091.39
2023-05-23T02:56:10.430Z,1109.07
2023-05-23T02:56:55.790Z,1109.07
2023-05-23T02:57:40.527Z,1093.35
2023-05-23T02:58:25.893Z,1087.88
2023-05-23T02:59:10.661Z,1092.37
2023-05-23T02:59:55.713Z,1096.30
2023-05-23T03:00:40.658Z,1092.37
2023-05-23T03:01:25.986Z,1094.33
2023-05-23T03:02:10.968Z,1103.17
2023-05-23T03:02:56.288Z,1096.30
2023-05-23T03:03:41.155Z,1095.31
2023-05-23T03:04:26.136Z,1093.35
2023-05-23T03:05:11.171Z,1102.19
2023-05-23T03:05:56.154Z,1087.46
2023-05-23T03:06:41.022Z,1090.40
2023-05-23T03:07:28.451Z,1088.44
2023-05-23T03:08:11.810Z,1092.37
2023-05-23T03:08:56.844Z,1103.17
2023-05-23T03:09:41.258Z,1093.51
2023-05-23T03:10:26.577Z,1089.42
2023-05-23T03:11:11.344Z,1100.23
2023-05-23T03:11:56.837Z,1094.33
2023-05-23T03:12:41.386Z,1077.86
2023-05-23T03:13:26.615Z,1097.28
2023-05-23T03:14:11.621Z,1091.39
2023-05-23T03:14:57.035Z,1101.21
2023-05-23T03:15:42.342Z,1089.42
2023-05-23T03:16:26.689Z,1089.42
2023-05-23T03:17:11.915Z,1096.30
2023-05-23T03:17:57.166Z,1095.31
2023-05-23T03:18:44.086Z,1094.33
2023-05-23T03:19:27.213Z,1093.35
2023-05-23T03:20:12.339Z,1083.53
2023-05-23T03:20:57.628Z,1082.75
2023-05-23T03:21:42.253Z,1098.26
2023-05-23T03:22:27.401Z,1091.39
2023-05-23T03:23:13.101Z,1100.23
2023-05-23T03:23:57.778Z,1109.07
2023-05-23T03:24:42.295Z,1086.47
2023-05-23T03:25:27.585Z,1089.42
2023-05-23T03:26:12.409Z,1091.39
2023-05-23T03:26:57.847Z,1091.39
2023-05-23T03:27:42.389Z,1091.48
2023-05-23T03:28:27.583Z,1104.28
2023-05-23T03:29:12.289Z,1099.24
2023-05-23T03:29:57.758Z,1099.24
2023-05-23T03:30:42.914Z,1100.23
2023-05-23T03:31:28.041Z,1100.34
2023-05-23T03:32:12.918Z,1103.30
2023-05-23T03:32:57.830Z,1100.34
2023-05-23T03:33:42.997Z,1109.20
2023-05-23T03:34:28.094Z,1105.26
2023-05-23T03:35:13.184Z,1105.26
2023-05-23T03:35:58.436Z,1110.18
2023-05-23T03:36:43.282Z,1102.31
2023-05-23T03:37:29.148Z,1106.25
2023-05-23T03:38:14.740Z,1101.33
2023-05-23T03:38:58.725Z,1101.33
2023-05-23T03:39:44.102Z,1093.45
2023-05-23T03:40:28.354Z,1094.44
2023-05-23T03:41:13.936Z,1098.26
2023-05-23T03:41:58.969Z,1097.28
2023-05-23T03:42:43.763Z,1097.28
2023-05-23T03:43:28.888Z,1110.05
2023-05-23T03:44:13.881Z,1110.05
2023-05-23T03:44:59.291Z,1085.49
2023-05-23T03:45:44.499Z,1109.07
2023-05-23T03:46:29.317Z,1095.68
2023-05-23T03:47:14.089Z,1097.28
2023-05-23T03:47:59.396Z,1097.28
2023-05-23T03:48:44.142Z,1094.33
2023-05-23T03:49:29.078Z,1105.14
2023-05-23T03:50:14.282Z,1100.23
2023-05-23T03:50:59.285Z,1099.24
2023-05-23T03:51:44.348Z,1093.51
2023-05-23T03:52:29.496Z,1093.51
2023-05-23T03:53:14.299Z,1093.51
2023-05-23T03:53:59.601Z,1097.28
2023-05-23T03:54:45.068Z,1097.39
2023-05-23T03:55:29.681Z,1090.50
2023-05-23T03:56:14.451Z,1096.41
2023-05-23T03:57:00.250Z,1086.66
2023-05-23T03:57:45.093Z,1106.25
2023-05-23T03:58:29.804Z,1092.47
2023-05-23T03:59:14.869Z,1095.46
2023-05-23T03:59:59.907Z,1101.33
2023-05-23T04:00:44.760Z,1099.36
2023-05-23T04:01:29.861Z,1095.42
2023-05-23T04:02:15.135Z,1100.89
2023-05-23T04:03:00.115Z,1103.30
2023-05-23T04:03:45.577Z,1105.14
2023-05-23T04:04:30.170Z,1105.14
2023-05-23T04:05:15.265Z,1085.20
2023-05-23T04:06:00.283Z,1100.89
2023-05-23T04:06:45.108Z,1088.14
2023-05-23T04:07:30.164Z,1094.03
2023-05-23T04:08:16.243Z,1095.01
2023-05-23T04:09:00.788Z,1091.09
2023-05-23T04:09:45.397Z,1090.11
2023-05-23T04:10:30.674Z,1084.22
2023-05-23T04:11:15.759Z,1088.14
2023-05-23T04:12:01.037Z,1101.87
2023-05-23T04:12:45.871Z,1104.81
2023-05-23T04:13:30.736Z,1084.22
2023-05-23T04:14:16.034Z,1088.14
2023-05-23T04:15:00.819Z,1084.51
2023-05-23T04:15:45.998Z,1099.24
2023-05-23T04:16:31.103Z,1096.30
2023-05-23T04:17:16.112Z,1090.40
2023-05-23T04:18:01.529Z,1088.44
2023-05-23T04:18:46.124Z,1091.39
2023-05-23T04:19:31.322Z,1099.24
2023-05-23T04:20:17.261Z,1095.31
2023-05-23T04:21:01.697Z,1100.23
2023-05-23T04:21:46.331Z,1089.42
2023-05-23T04:22:31.515Z,1097.28
2023-05-23T04:23:16.362Z,1099.24
2023-05-23T04:24:02.238Z,1093.35
2023-05-23T04:24:46.560Z,1093.35
2023-05-23T04:25:31.527Z,1092.37
2023-05-23T04:26:16.160Z,1092.37
2023-05-23T04:27:02.052Z,1095.31
2023-05-23T04:27:46.790Z,1095.31
2023-05-23T04:28:31.843Z,1092.37
2023-05-23T04:29:16.737Z,1081.56
2023-05-23T04:30:02.084Z,1096.30
2023-05-23T04:30:47.171Z,1099.24
2023-05-23T04:31:32.119Z,1099.24
2023-05-23T04:32:16.964Z,1099.36
2023-05-23T04:33:02.516Z,1094.44
2023-05-23T04:33:47.551Z,1100.34
2023-05-23T04:34:32.398Z,1086.56
2023-05-23T04:35:17.982Z,1086.56
2023-05-23T04:36:02.547Z,1099.36
2023-05-23T04:36:49.387Z,1097.39
2023-05-23T04:37:32.627Z,1090.50
2023-05-23T04:38:17.584Z,1098.37
2023-05-23T04:39:03.069Z,1093.45
2023-05-23T04:39:48.259Z,1090.40
2023-05-23T04:40:32.957Z,1090.50
2023-05-23T04:41:17.628Z,1103.29
2023-05-23T04:42:02.721Z,1093.45
2023-05-23T04:42:47.816Z,1102.31
2023-05-23T04:43:32.831Z,1092.47
2023-05-23T04:44:17.737Z,1101.33
2023-05-23T04:45:02.897Z,1100.34
2023-05-23T04:45:47.837Z,1102.31
2023-05-23T04:46:33.038Z,1099.36
2023-05-23T04:47:18.228Z,1082.63
2023-05-23T04:48:03.237Z,1098.37
2023-05-23T04:48:48.264Z,1089.52
2023-05-23T04:49:33.222Z,1101.33
2023-05-23T04:50:18.378Z,1085.58
2023-05-23T04:51:04.574Z,1024.97
2023-05-23T04:51:48.544Z,1095.42
2023-05-23T04:52:33.672Z,1080.58
2023-05-23T04:53:18.941Z,1077.63
2023-05-23T04:54:03.974Z,1091.39
2023-05-23T04:54:48.844Z,1078.61
2023-05-23T04:55:34.187Z,1084.95
2023-05-23T04:56:20.376Z,1094.03
2023-05-23T04:57:04.309Z,1078.34
2023-05-23T04:57:49.181Z,1078.34
2023-05-23T04:58:34.261Z,1081.28
2023-05-23T04:59:18.959Z,1069.17
2023-05-23T05:00:04.220Z,1089.59
2023-05-23T05:00:49.319Z,1083.73
2023-05-23T05:01:34.548Z,1084.69
2023-05-23T05:02:19.406Z,1084.70
2023-05-23T05:03:04.271Z,1072.55
2023-05-23T05:03:49.533Z,1089.59
2023-05-23T05:04:34.362Z,1092.53
2023-05-23T05:05:23.101Z,1088.62
2023-05-23T05:06:04.626Z,1076.42
2023-05-23T05:06:49.637Z,1083.00
2023-05-23T05:07:34.475Z,1090.81
2023-05-23T05:08:19.711Z,1085.93
2023-05-23T05:09:04.690Z,1092.76
2023-05-23T05:09:49.768Z,1080.07
2023-05-23T05:10:34.786Z,1092.76
2023-05-23T05:11:19.857Z,1090.93
2023-05-23T05:12:05.242Z,1087.88
2023-05-23T05:12:49.765Z,1095.68
2023-05-23T05:13:35.157Z,1095.68
2023-05-23T05:14:20.244Z,1085.93
2023-05-23T05:15:04.941Z,1085.93
2023-05-23T05:15:50.202Z,1092.76
2023-05-23T05:16:35.076Z,1092.76
2023-05-23T05:17:20.877Z,1092.76
2023-05-23T05:18:05.319Z,1088.85
2023-05-23T05:18:50.364Z,1087.88
2023-05-23T05:19:35.605Z,1094.71
2023-05-23T05:20:20.437Z,1101.54
2023-05-23T05:21:05.289Z,1086.90
2023-05-23T05:21:50.972Z,1090.81
2023-05-23T05:22:35.397Z,1091.78
2023-05-23T05:23:20.452Z,1097.64
2023-05-23T05:24:05.496Z,1097.64
2023-05-23T05:24:50.918Z,1087.88
2023-05-23T05:25:35.591Z,1086.90
2023-05-23T05:26:20.902Z,1082.03
2023-05-23T05:27:05.979Z,1086.90
2023-05-23T05:27:51.110Z,1069.83
2023-05-23T05:28:36.101Z,1091.78
2023-05-23T05:29:21.134Z,1091.78
2023-05-23T05:30:06.244Z,1099.59
2023-05-23T05:30:51.275Z,1087.88
2023-05-23T05:31:36.202Z,1071.76
2023-05-23T05:32:21.290Z,1094.71
2023-05-23T05:33:06.061Z,1094.71
2023-05-23T05:33:51.243Z,1094.71
2023-05-23T05:34:36.827Z,1082.36
2023-05-23T05:35:21.270Z,1080.81
2023-05-23T05:36:06.318Z,1094.71
2023-05-23T05:36:51.471Z,1094.71
2023-05-23T05:37:36.527Z,1081.78
2023-05-23T05:38:21.482Z,1099.59
2023-05-23T05:39:06.433Z,1075.96
2023-05-23T05:39:51.699Z,1086.63
2023-05-23T05:40:36.650Z,1086.63
2023-05-23T05:41:21.809Z,1085.66
2023-05-23T05:42:06.897Z,1085.25
2023-05-23T05:42:51.714Z,1073.05
2023-05-23T05:43:36.976Z,1083.72
2023-05-23T05:44:21.934Z,1079.84
2023-05-23T05:45:06.575Z,1077.90
2023-05-23T05:45:51.856Z,1091.49
2023-05-23T05:46:37.255Z,1077.90
2023-05-23T05:47:22.499Z,1084.69
2023-05-23T05:48:07.127Z,1083.72
2023-05-23T05:48:52.042Z,1070.14
2023-05-23T05:49:37.132Z,1069.17
2023-05-23T05:50:22.585Z,1076.58
2023-05-23T05:51:07.285Z,1084.69
2023-05-23T05:51:52.345Z,1076.93
2023-05-23T05:52:37.477Z,1101.19
2023-05-23T05:53:21.937Z,1083.72
2023-05-23T05:54:07.366Z,1081.78
2023-05-23T05:54:52.620Z,1092.46
2023-05-23T05:55:37.616Z,1095.37
2023-05-23T05:56:22.984Z,1078.87
2023-05-23T05:57:07.611Z,1091.49
2023-05-23T05:57:52.742Z,1083.72
2023-05-23T05:58:38.434Z,1083.72
2023-05-23T05:59:22.858Z,1086.63
2023-05-23T06:00:07.816Z,1093.43
2023-05-23T06:00:53.087Z,1086.63
2023-05-23T06:01:38.030Z,1100.22
2023-05-23T06:02:23.748Z,1098.28
2023-05-23T06:03:09.008Z,1101.19
2023-05-23T06:03:53.242Z,1092.46
2023-05-23T06:04:38.620Z,1090.52
2023-05-23T06:05:23.515Z,1094.40
2023-05-23T06:06:08.877Z,1079.84
2023-05-23T06:06:53.446Z,1091.49
2023-05-23T06:07:38.430Z,1092.46
2023-05-23T06:08:23.431Z,1079.84
2023-05-23T06:09:08.729Z,1091.49
2023-05-23T06:09:54.651Z,1093.43
2023-05-23T06:10:39.002Z,1084.69
2023-05-23T06:11:23.586Z,1085.66
2023-05-23T06:12:08.441Z,1047.78
2023-05-23T06:12:53.790Z,1082.75
2023-05-23T06:13:39.930Z,1090.52
2023-05-23T06:14:24.193Z,1092.46
2023-05-23T06:15:09.446Z,1099.25
2023-05-23T06:15:54.222Z,1087.60
2023-05-23T06:16:39.235Z,1081.78
2023-05-23T06:17:24.364Z,1089.54
2023-05-23T06:18:09.190Z,1076.93
2023-05-23T06:18:55.516Z,1073.05
2023-05-23T06:19:39.714Z,1095.37
2023-05-23T06:20:24.388Z,1093.43
2023-05-23T06:21:09.838Z,1089.54
2023-05-23T06:21:54.585Z,1086.63
2023-05-23T06:22:39.479Z,1094.40
2023-05-23T06:23:24.674Z,1083.72
2023-05-23T06:24:09.457Z,1082.22
2023-05-23T06:24:54.900Z,1069.65
2023-05-23T06:25:39.900Z,1083.72
2023-05-23T06:26:24.965Z,1076.93
2023-05-23T06:27:10.231Z,1081.78
2023-05-23T06:27:55.212Z,1094.40
2023-05-23T06:28:40.069Z,1093.43
2023-05-23T06:29:25.374Z,1081.78
2023-05-23T06:30:10.730Z,1079.84
2023-05-23T06:30:55.218Z,1076.93
2023-05-23T06:31:40.444Z,1089.96
2023-05-23T06:32:25.928Z,1074.48
2023-05-23T06:33:10.364Z,1077.39
2023-05-23T06:33:55.814Z,1088.02
2023-05-23T06:34:40.614Z,1094.79
2023-05-23T06:35:25.885Z,1082.22
2023-05-23T06:36:10.799Z,1094.79
2023-05-23T06:36:55.631Z,1086.09
2023-05-23T06:37:40.939Z,1088.99
2023-05-23T06:38:26.367Z,1079.32
2023-05-23T06:39:10.748Z,1093.83
2023-05-23T06:39:56.042Z,1083.19
2023-05-23T06:40:41.030Z,1090.93
2023-05-23T06:41:26.322Z,1087.06
2023-05-23T06:42:11.044Z,1072.55
2023-05-23T06:42:56.145Z,1094.79
2023-05-23T06:43:41.410Z,1093.83
2023-05-23T06:44:26.051Z,1095.76
2023-05-23T06:45:12.455Z,1102.16
2023-05-23T06:45:57.054Z,1084.69
2023-05-23T06:46:41.101Z,1089.54
2023-05-23T06:47:26.306Z,1101.56
2023-05-23T06:48:11.119Z,1086.09
2023-05-23T06:49:06.505Z,1087.60
2023-05-23T06:49:41.132Z,1083.19
2023-05-23T06:50:26.609Z,1085.12
2023-05-23T06:51:12.221Z,1087.06
2023-05-23T06:51:56.792Z,1092.46
2023-05-23T06:52:41.978Z,1082.75
2023-05-23T06:53:26.612Z,1078.87
2023-05-23T06:54:11.472Z,1081.78
2023-05-23T06:54:56.772Z,1087.60
2023-05-23T06:55:41.895Z,1083.72
2023-05-23T06:56:26.975Z,1088.57
2023-05-23T06:57:12.640Z,1098.28
2023-05-23T06:57:57.161Z,1087.60
2023-05-23T06:58:42.155Z,1086.63
2023-05-23T06:59:27.309Z,1085.66
2023-05-23T07:00:12.447Z,1085.66
2023-05-23T07:00:57.736Z,1091.49
2023-05-23T07:01:42.092Z,1080.81
2023-05-23T07:02:27.347Z,1097.31
2023-05-23T07:03:12.782Z,1094.40
2023-05-23T07:03:57.540Z,1091.49
2023-05-23T07:04:42.285Z,1099.25
2023-05-23T07:05:27.503Z,1083.19
2023-05-23T07:06:12.587Z,1097.70
2023-05-23T07:06:58.813Z,1091.89
2023-05-23T07:07:42.283Z,1088.99
2023-05-23T07:08:27.810Z,1085.12
2023-05-23T07:09:12.901Z,1094.79
2023-05-23T07:09:57.567Z,1089.96
2023-05-23T07:10:42.756Z,1092.86
2023-05-23T07:11:28.174Z,1082.22
2023-05-23T07:12:12.991Z,1092.86
2023-05-23T07:12:58.107Z,1083.19
2023-05-23T07:13:43.045Z,1086.09
2023-05-23T07:14:28.444Z,1084.16
2023-05-23T07:15:13.225Z,1098.66
2023-05-23T07:15:58.822Z,1089.96
2023-05-23T07:16:43.218Z,1082.22
2023-05-23T07:17:28.718Z,1086.09
2023-05-23T07:18:13.624Z,1094.79
2023-05-23T07:18:59.405Z,1094.79
2023-05-23T07:19:43.529Z,1090.93
2023-05-23T07:20:28.673Z,1091.89
2023-05-23T07:21:13.626Z,1078.35
2023-05-23T07:21:58.743Z,1083.19
2023-05-23T07:22:43.727Z,1089.96
2023-05-23T07:23:29.202Z,1096.73
2023-05-23T07:24:14.231Z,1087.06
2023-05-23T07:24:59.584Z,1095.76
2023-05-23T07:25:53.849Z,1080.29
2023-05-23T07:26:28.822Z,1093.83
2023-05-23T07:27:13.957Z,1089.96
2023-05-23T07:27:59.630Z,1104.46
2023-05-23T07:28:45.088Z,1095.76
2023-05-23T07:29:29.280Z,1089.96
2023-05-23T07:30:14.449Z,1085.12
2023-05-23T07:30:59.226Z,1096.73
2023-05-23T07:31:44.463Z,1087.06
2023-05-23T07:32:29.410Z,1082.22
2023-05-23T07:33:14.622Z,1103.50
2023-05-23T07:34:03.695Z,1094.79
2023-05-23T07:34:44.457Z,1090.93
2023-05-23T07:35:29.706Z,1081.25
2023-05-23T07:36:14.639Z,1094.79
2023-05-23T07:36:59.700Z,1091.89
2023-05-23T07:37:44.900Z,1091.89
2023-05-23T07:38:29.942Z,1091.89
2023-05-23T07:39:14.871Z,1090.93
2023-05-23T07:40:00.324Z,1094.79
2023-05-23T07:40:50.132Z,1092.86
2023-05-23T07:41:29.794Z,1100.60
2023-05-23T07:42:15.260Z,1090.93
2023-05-23T07:43:00.056Z,1098.66
2023-05-23T07:43:45.190Z,1095.76
2023-05-23T07:44:30.086Z,1105.43
2023-05-23T07:45:14.901Z,1092.86
2023-05-23T07:46:00.203Z,1094.79
2023-05-23T07:46:45.255Z,1088.99
2023-05-23T07:47:30.594Z,1103.50
2023-05-23T07:48:15.338Z,1087.06
2023-05-23T07:49:00.549Z,1096.73
2023-05-23T07:49:45.671Z,1095.76
2023-05-23T07:50:30.397Z,1087.06
2023-05-23T07:51:15.932Z,1083.19
2023-05-23T07:52:00.889Z,1085.12
2023-05-23T07:52:46.028Z,1093.83
2023-05-23T07:53:31.147Z,1093.83
2023-05-23T07:54:16.620Z,1093.83
2023-05-23T07:55:01.678Z,1091.89
2023-05-23T07:55:46.957Z,1091.89
2023-05-23T07:56:30.535Z,1088.99
2023-05-23T07:57:15.862Z,1102.53
2023-05-23T07:58:00.973Z,1096.73
2023-05-23T07:58:46.560Z,1103.50
2023-05-23T07:59:31.224Z,1090.93
2023-05-23T08:00:15.839Z,1089.96
2023-05-23T08:01:01.207Z,1085.25
2023-05-23T08:01:46.187Z,1090.07
2023-05-23T08:02:31.258Z,1092.00
2023-05-23T08:03:16.274Z,1098.74
2023-05-23T08:04:01.483Z,1087.18
2023-05-23T08:04:46.120Z,1091.03
2023-05-23T08:05:31.041Z,1088.14
2023-05-23T08:06:16.316Z,1102.60
2023-05-23T08:07:05.647Z,1088.14
2023-05-23T08:07:46.371Z,1089.11
2023-05-23T08:08:31.855Z,1090.07
2023-05-23T08:09:16.905Z,1087.18
2023-05-23T08:10:02.381Z,1092.00
2023-05-23T08:10:46.818Z,1085.25
2023-05-23T08:11:31.654Z,1087.18
2023-05-23T08:12:16.784Z,1088.14
2023-05-23T08:13:02.085Z,1088.14
2023-05-23T08:13:46.843Z,1085.25
2023-05-23T08:14:49.140Z,1092.00
2023-05-23T08:15:17.157Z,1094.89
2023-05-23T08:16:02.028Z,1090.07
2023-05-23T08:16:47.161Z,1094.89
2023-05-23T08:17:32.287Z,1091.03
2023-05-23T08:18:17.180Z,1088.14
2023-05-23T08:19:02.384Z,1085.25
2023-05-23T08:19:46.988Z,1108.38
2023-05-23T08:20:32.371Z,1095.85
2023-05-23T08:21:17.508Z,1099.71
2023-05-23T08:22:02.468Z,1096.82
2023-05-23T08:22:47.244Z,1094.89
2023-05-23T08:23:32.738Z,1084.29
2023-05-23T08:24:17.740Z,1092.00
2023-05-23T08:25:03.162Z,1095.85
2023-05-23T08:25:47.844Z,1089.11
2023-05-23T08:26:33.526Z,1092.96
2023-05-23T08:27:17.988Z,1087.18
2023-05-23T08:28:03.026Z,1091.03
2023-05-23T08:28:48.093Z,1092.96
2023-05-23T08:29:32.942Z,1084.29
2023-05-23T08:30:18.211Z,1099.71
2023-05-23T08:31:03.352Z,1093.92
2023-05-23T08:31:48.262Z,1086.21
2023-05-23T08:32:33.174Z,1082.36
2023-05-23T08:33:18.111Z,1088.99
2023-05-23T08:34:03.788Z,1096.73
2023-05-23T08:34:48.838Z,1089.96
2023-05-23T08:35:33.281Z,1092.86
2023-05-23T08:36:18.528Z,1095.76
2023-05-23T08:37:03.770Z,1106.40
2023-05-23T08:37:48.899Z,1093.83
2023-05-23T08:38:33.805Z,1085.12
2023-05-23T08:39:18.664Z,1089.96
2023-05-23T08:40:05.057Z,1095.76
2023-05-23T08:40:48.875Z,1083.19
2023-05-23T08:41:34.039Z,1088.02
2023-05-23T08:42:19.595Z,1100.60
2023-05-23T08:43:04.217Z,1095.76
2023-05-23T08:43:49.017Z,1084.16
2023-05-23T08:44:34.272Z,1084.16
2023-05-23T08:45:20.402Z,1093.83
2023-05-23T08:46:04.624Z,1095.76
2023-05-23T08:46:49.234Z,1097.70
2023-05-23T08:47:34.634Z,1095.76
2023-05-23T08:48:20.608Z,1088.02
2023-05-23T08:49:04.537Z,1087.06
2023-05-23T08:49:49.866Z,1090.93
2023-05-23T08:50:35.025Z,1099.63
2023-05-23T08:51:19.741Z,1098.66
2023-05-23T08:52:05.138Z,1096.73
2023-05-23T08:52:49.956Z,1098.66
2023-05-23T08:53:34.664Z,1091.89
2023-05-23T08:54:19.689Z,1096.73
2023-05-23T08:55:04.744Z,1098.66
2023-05-23T08:55:50.161Z,1098.66
2023-05-23T08:56:35.095Z,1087.06
2023-05-23T08:57:19.962Z,1097.70
2023-05-23T08:58:05.198Z,1090.93
2023-05-23T08:58:50.438Z,1087.06
2023-05-23T08:59:35.090Z,1088.02
2023-05-23T09:00:20.442Z,1089.96
2023-05-23T09:01:05.345Z,1092.86
2023-05-23T09:01:50.514Z,1101.56
2023-05-23T09:02:35.668Z,1089.96
2023-05-23T09:03:20.306Z,1093.83
2023-05-23T09:04:05.563Z,1083.19
2023-05-23T09:04:50.580Z,1092.86
2023-05-23T09:05:35.680Z,1098.66